sensor_id;sensor_type;location;lat;lon;timestamp;P1;durP1;ratioP1;P2;durP2;ratioP2
38117;SDS011;23928;47.562;7.508;2022-07-18T00:00:31;2.87;;;2.03;;
38117;SDS011;23928;47.562;7.508;2022-07-18T00:02:57;1.57;;;1.47;;
38117;SDS011;23928;47.562;7.508;2022-07-18T00:05:22;1.63;;;1.50;;
38117;SDS011;23928;47.562;7.508;2022-07-18T00:07:48;3.10;;;2.13;;
38117;SDS011;23928;47.562;7.508;2022-07-18T00:10:14;5.33;;;1.90;;
38117;SDS011;23928;47.562;7.508;2022-07-18T00:12:39;1.80;;;1.70;;
38117;SDS011;23928;47.562;7.508;2022-07-18T00:15:07;2.00;;;1.80;;
38117;SDS011;23928;47.562;7.508;2022-07-18T00:17:35;2.10;;;1.83;;
38117;SDS011;23928;47.562;7.508;2022-07-18T00:20:01;2.37;;;2.17;;
38117;SDS011;23928;47.562;7.508;2022-07-18T00:22:27;2.13;;;1.80;;
38117;SDS011;23928;47.562;7.508;2022-07-18T00:24:53;2.30;;;1.67;;
38117;SDS011;23928;47.562;7.508;2022-07-18T00:27:19;1.70;;;1.60;;
38117;SDS011;23928;47.562;7.508;2022-07-18T00:29:44;2.43;;;1.60;;
38117;SDS011;23928;47.562;7.508;2022-07-18T00:32:10;1.93;;;1.60;;
38117;SDS011;23928;47.562;7.508;2022-07-18T00:34:35;6.90;;;1.70;;
38117;SDS011;23928;47.562;7.508;2022-07-18T00:37:01;2.20;;;2.00;;
38117;SDS011;23928;47.562;7.508;2022-07-18T00:39:28;2.33;;;1.83;;
38117;SDS011;23928;47.562;7.508;2022-07-18T00:41:53;2.20;;;1.90;;
38117;SDS011;23928;47.562;7.508;2022-07-18T00:44:23;1.90;;;1.70;;
38117;SDS011;23928;47.562;7.508;2022-07-18T00:46:50;4.17;;;2.00;;
38117;SDS011;23928;47.562;7.508;2022-07-18T00:49:17;3.67;;;1.73;;
38117;SDS011;23928;47.562;7.508;2022-07-18T00:51:43;2.33;;;2.13;;
38117;SDS011;23928;47.562;7.508;2022-07-18T00:54:09;3.37;;;1.80;;
38117;SDS011;23928;47.562;7.508;2022-07-18T00:56:35;2.90;;;1.70;;
38117;SDS011;23928;47.562;7.508;2022-07-18T00:59:01;1.83;;;1.73;;
38117;SDS011;23928;47.562;7.508;2022-07-18T01:01:27;2.17;;;1.80;;
38117;SDS011;23928;47.562;7.508;2022-07-18T01:04:08;3.53;;;1.80;;
38117;SDS011;23928;47.562;7.508;2022-07-18T01:06:35;2.37;;;2.00;;
38117;SDS011;23928;47.562;7.508;2022-07-18T01:09:00;2.47;;;2.00;;
38117;SDS011;23928;47.562;7.508;2022-07-18T01:11:26;1.90;;;1.73;;
38117;SDS011;23928;47.562;7.508;2022-07-18T01:13:52;2.03;;;1.87;;
38117;SDS011;23928;47.562;7.508;2022-07-18T01:16:19;1.73;;;1.63;;
38117;SDS011;23928;47.562;7.508;2022-07-18T01:18:46;2.00;;;1.80;;
38117;SDS011;23928;47.562;7.508;2022-07-18T01:21:12;3.70;;;2.20;;
38117;SDS011;23928;47.562;7.508;2022-07-18T01:23:39;2.60;;;2.30;;
38117;SDS011;23928;47.562;7.508;2022-07-18T01:26:05;3.13;;;2.03;;
38117;SDS011;23928;47.562;7.508;2022-07-18T01:28:30;2.03;;;1.83;;
38117;SDS011;23928;47.562;7.508;2022-07-18T01:30:56;2.27;;;1.87;;
38117;SDS011;23928;47.562;7.508;2022-07-18T01:33:22;3.00;;;2.00;;
38117;SDS011;23928;47.562;7.508;2022-07-18T01:35:47;2.00;;;1.70;;
38117;SDS011;23928;47.562;7.508;2022-07-18T01:38:13;2.53;;;1.93;;
38117;SDS011;23928;47.562;7.508;2022-07-18T01:40:39;2.27;;;1.93;;
38117;SDS011;23928;47.562;7.508;2022-07-18T01:43:04;5.53;;;2.00;;
38117;SDS011;23928;47.562;7.508;2022-07-18T01:45:30;2.37;;;2.17;;
38117;SDS011;23928;47.562;7.508;2022-07-18T01:47:56;1.93;;;1.73;;
38117;SDS011;23928;47.562;7.508;2022-07-18T01:50:21;3.27;;;1.97;;
38117;SDS011;23928;47.562;7.508;2022-07-18T01:52:47;3.03;;;1.97;;
38117;SDS011;23928;47.562;7.508;2022-07-18T01:55:13;2.57;;;1.93;;
38117;SDS011;23928;47.562;7.508;2022-07-18T01:57:39;5.23;;;2.13;;
38117;SDS011;23928;47.562;7.508;2022-07-18T02:00:05;2.10;;;1.90;;
38117;SDS011;23928;47.562;7.508;2022-07-18T02:02:33;2.57;;;1.73;;
38117;SDS011;23928;47.562;7.508;2022-07-18T02:04:58;2.03;;;1.77;;
38117;SDS011;23928;47.562;7.508;2022-07-18T02:07:24;2.13;;;1.80;;
38117;SDS011;23928;47.562;7.508;2022-07-18T02:09:54;2.30;;;2.03;;
38117;SDS011;23928;47.562;7.508;2022-07-18T02:12:21;3.50;;;1.60;;
38117;SDS011;23928;47.562;7.508;2022-07-18T02:14:46;1.70;;;1.60;;
38117;SDS011;23928;47.562;7.508;2022-07-18T02:17:12;2.10;;;1.80;;
38117;SDS011;23928;47.562;7.508;2022-07-18T02:19:38;1.73;;;1.53;;
38117;SDS011;23928;47.562;7.508;2022-07-18T02:22:05;1.80;;;1.70;;
38117;SDS011;23928;47.562;7.508;2022-07-18T02:24:31;1.90;;;1.80;;
38117;SDS011;23928;47.562;7.508;2022-07-18T02:26:57;1.87;;;1.60;;
38117;SDS011;23928;47.562;7.508;2022-07-18T02:29:23;2.10;;;1.50;;
38117;SDS011;23928;47.562;7.508;2022-07-18T02:31:49;2.23;;;1.90;;
38117;SDS011;23928;47.562;7.508;2022-07-18T02:34:15;1.77;;;1.67;;
38117;SDS011;23928;47.562;7.508;2022-07-18T02:36:41;3.50;;;1.80;;
38117;SDS011;23928;47.562;7.508;2022-07-18T02:39:08;2.20;;;2.00;;
38117;SDS011;23928;47.562;7.508;2022-07-18T02:41:34;1.87;;;1.60;;
38117;SDS011;23928;47.562;7.508;2022-07-18T02:43:59;2.27;;;2.07;;
38117;SDS011;23928;47.562;7.508;2022-07-18T02:46:25;3.27;;;1.83;;
38117;SDS011;23928;47.562;7.508;2022-07-18T02:48:51;2.10;;;1.90;;
38117;SDS011;23928;47.562;7.508;2022-07-18T02:51:16;2.70;;;1.70;;
38117;SDS011;23928;47.562;7.508;2022-07-18T02:53:42;1.90;;;1.70;;
38117;SDS011;23928;47.562;7.508;2022-07-18T02:56:08;1.97;;;1.77;;
38117;SDS011;23928;47.562;7.508;2022-07-18T02:58:33;1.80;;;1.70;;
38117;SDS011;23928;47.562;7.508;2022-07-18T03:00:59;4.93;;;1.83;;
38117;SDS011;23928;47.562;7.508;2022-07-18T03:03:25;2.60;;;2.07;;
38117;SDS011;23928;47.562;7.508;2022-07-18T03:05:50;4.30;;;1.73;;
38117;SDS011;23928;47.562;7.508;2022-07-18T03:08:17;2.57;;;1.97;;
38117;SDS011;23928;47.562;7.508;2022-07-18T03:10:42;2.10;;;1.80;;
38117;SDS011;23928;47.562;7.508;2022-07-18T03:13:08;2.20;;;2.00;;
38117;SDS011;23928;47.562;7.508;2022-07-18T03:15:35;2.30;;;2.10;;
38117;SDS011;23928;47.562;7.508;2022-07-18T03:18:01;2.20;;;1.70;;
38117;SDS011;23928;47.562;7.508;2022-07-18T03:20:27;2.00;;;1.60;;
38117;SDS011;23928;47.562;7.508;2022-07-18T03:22:53;3.63;;;2.10;;
38117;SDS011;23928;47.562;7.508;2022-07-18T03:25:18;2.30;;;1.73;;
38117;SDS011;23928;47.562;7.508;2022-07-18T03:27:44;3.83;;;2.00;;
38117;SDS011;23928;47.562;7.508;2022-07-18T03:30:10;2.43;;;2.10;;
38117;SDS011;23928;47.562;7.508;2022-07-18T03:32:36;2.50;;;1.60;;
38117;SDS011;23928;47.562;7.508;2022-07-18T03:37:37;3.47;;;1.97;;
38117;SDS011;23928;47.562;7.508;2022-07-18T03:40:03;2.53;;;2.20;;
38117;SDS011;23928;47.562;7.508;2022-07-18T03:42:29;2.07;;;1.97;;
38117;SDS011;23928;47.562;7.508;2022-07-18T03:44:54;2.30;;;2.10;;
38117;SDS011;23928;47.562;7.508;2022-07-18T03:47:20;3.03;;;2.00;;
38117;SDS011;23928;47.562;7.508;2022-07-18T03:49:45;2.23;;;1.77;;
38117;SDS011;23928;47.562;7.508;2022-07-18T03:52:11;3.13;;;1.83;;
38117;SDS011;23928;47.562;7.508;2022-07-18T03:54:36;2.53;;;1.90;;
38117;SDS011;23928;47.562;7.508;2022-07-18T03:57:02;2.50;;;2.23;;
38117;SDS011;23928;47.562;7.508;2022-07-18T03:59:28;2.30;;;1.67;;
38117;SDS011;23928;47.562;7.508;2022-07-18T04:01:53;2.10;;;1.90;;
38117;SDS011;23928;47.562;7.508;2022-07-18T04:04:19;1.90;;;1.73;;
38117;SDS011;23928;47.562;7.508;2022-07-18T04:06:46;2.17;;;1.83;;
38117;SDS011;23928;47.562;7.508;2022-07-18T04:09:12;2.20;;;1.97;;
38117;SDS011;23928;47.562;7.508;2022-07-18T04:11:37;2.37;;;1.70;;
38117;SDS011;23928;47.562;7.508;2022-07-18T04:14:03;2.43;;;1.80;;
38117;SDS011;23928;47.562;7.508;2022-07-18T04:16:29;2.90;;;1.73;;
38117;SDS011;23928;47.562;7.508;2022-07-18T04:18:55;1.97;;;1.73;;
38117;SDS011;23928;47.562;7.508;2022-07-18T04:21:20;2.20;;;1.90;;
38117;SDS011;23928;47.562;7.508;2022-07-18T04:23:46;3.30;;;2.00;;
38117;SDS011;23928;47.562;7.508;2022-07-18T04:26:11;2.73;;;1.93;;
38117;SDS011;23928;47.562;7.508;2022-07-18T04:28:37;3.10;;;2.20;;
38117;SDS011;23928;47.562;7.508;2022-07-18T04:31:03;2.50;;;2.30;;
38117;SDS011;23928;47.562;7.508;2022-07-18T04:33:28;1.70;;;1.60;;
38117;SDS011;23928;47.562;7.508;2022-07-18T04:35:54;1.90;;;1.67;;
38117;SDS011;23928;47.562;7.508;2022-07-18T04:38:20;2.83;;;1.80;;
38117;SDS011;23928;47.562;7.508;2022-07-18T04:40:45;2.53;;;1.87;;
38117;SDS011;23928;47.562;7.508;2022-07-18T04:43:11;2.83;;;1.93;;
38117;SDS011;23928;47.562;7.508;2022-07-18T04:45:36;2.90;;;1.80;;
38117;SDS011;23928;47.562;7.508;2022-07-18T04:48:03;3.17;;;2.20;;
38117;SDS011;23928;47.562;7.508;2022-07-18T04:50:30;3.03;;;2.30;;
38117;SDS011;23928;47.562;7.508;2022-07-18T04:52:56;2.43;;;1.93;;
38117;SDS011;23928;47.562;7.508;2022-07-18T04:55:23;2.80;;;2.00;;
38117;SDS011;23928;47.562;7.508;2022-07-18T04:57:50;3.20;;;2.10;;
38117;SDS011;23928;47.562;7.508;2022-07-18T05:00:16;5.10;;;2.00;;
38117;SDS011;23928;47.562;7.508;2022-07-18T05:02:46;1.80;;;1.70;;
38117;SDS011;23928;47.562;7.508;2022-07-18T05:05:13;2.00;;;1.73;;
38117;SDS011;23928;47.562;7.508;2022-07-18T05:07:40;4.33;;;2.10;;
38117;SDS011;23928;47.562;7.508;2022-07-18T05:10:07;2.93;;;1.87;;
38117;SDS011;23928;47.562;7.508;2022-07-18T05:12:38;2.10;;;1.53;;
38117;SDS011;23928;47.562;7.508;2022-07-18T05:15:05;3.03;;;2.23;;
38117;SDS011;23928;47.562;7.508;2022-07-18T05:17:33;2.70;;;1.80;;
38117;SDS011;23928;47.562;7.508;2022-07-18T05:19:59;2.47;;;1.63;;
38117;SDS011;23928;47.562;7.508;2022-07-18T05:22:25;2.23;;;1.60;;
38117;SDS011;23928;47.562;7.508;2022-07-18T05:24:50;2.87;;;2.00;;
38117;SDS011;23928;47.562;7.508;2022-07-18T05:27:16;3.53;;;1.97;;
38117;SDS011;23928;47.562;7.508;2022-07-18T05:29:42;1.87;;;1.77;;
38117;SDS011;23928;47.562;7.508;2022-07-18T05:32:08;2.77;;;1.90;;
38117;SDS011;23928;47.562;7.508;2022-07-18T05:34:34;2.43;;;2.00;;
38117;SDS011;23928;47.562;7.508;2022-07-18T05:36:59;3.30;;;1.90;;
38117;SDS011;23928;47.562;7.508;2022-07-18T05:39:25;2.17;;;1.97;;
38117;SDS011;23928;47.562;7.508;2022-07-18T05:41:51;2.40;;;2.10;;
38117;SDS011;23928;47.562;7.508;2022-07-18T05:44:17;3.73;;;2.20;;
38117;SDS011;23928;47.562;7.508;2022-07-18T05:46:45;2.20;;;2.00;;
38117;SDS011;23928;47.562;7.508;2022-07-18T05:49:11;2.53;;;1.77;;
38117;SDS011;23928;47.562;7.508;2022-07-18T05:51:37;3.20;;;2.23;;
38117;SDS011;23928;47.562;7.508;2022-07-18T05:54:03;3.70;;;2.10;;
38117;SDS011;23928;47.562;7.508;2022-07-18T05:56:29;2.60;;;2.40;;
38117;SDS011;23928;47.562;7.508;2022-07-18T05:58:54;3.63;;;2.80;;
38117;SDS011;23928;47.562;7.508;2022-07-18T06:01:20;16.23;;;2.93;;
38117;SDS011;23928;47.562;7.508;2022-07-18T06:03:46;2.53;;;2.20;;
38117;SDS011;23928;47.562;7.508;2022-07-18T06:06:12;3.80;;;2.60;;
38117;SDS011;23928;47.562;7.508;2022-07-18T06:08:39;3.37;;;3.00;;
38117;SDS011;23928;47.562;7.508;2022-07-18T06:11:05;5.57;;;3.10;;
38117;SDS011;23928;47.562;7.508;2022-07-18T06:13:32;4.13;;;3.50;;
38117;SDS011;23928;47.562;7.508;2022-07-18T06:15:58;3.80;;;3.40;;
38117;SDS011;23928;47.562;7.508;2022-07-18T06:18:23;6.37;;;3.00;;
38117;SDS011;23928;47.562;7.508;2022-07-18T06:20:49;5.03;;;2.90;;
38117;SDS011;23928;47.562;7.508;2022-07-18T06:23:15;5.27;;;3.50;;
38117;SDS011;23928;47.562;7.508;2022-07-18T06:25:40;4.87;;;3.33;;
38117;SDS011;23928;47.562;7.508;2022-07-18T06:28:06;5.67;;;3.57;;
38117;SDS011;23928;47.562;7.508;2022-07-18T06:30:31;5.00;;;3.60;;
38117;SDS011;23928;47.562;7.508;2022-07-18T06:32:57;4.13;;;3.57;;
38117;SDS011;23928;47.562;7.508;2022-07-18T06:35:23;7.07;;;3.90;;
38117;SDS011;23928;47.562;7.508;2022-07-18T06:37:49;4.87;;;3.53;;
38117;SDS011;23928;47.562;7.508;2022-07-18T06:40:14;4.20;;;3.50;;
38117;SDS011;23928;47.562;7.508;2022-07-18T06:42:40;5.03;;;3.23;;
38117;SDS011;23928;47.562;7.508;2022-07-18T06:45:06;6.03;;;3.33;;
38117;SDS011;23928;47.562;7.508;2022-07-18T06:47:32;6.53;;;3.50;;
38117;SDS011;23928;47.562;7.508;2022-07-18T06:49:57;4.53;;;3.10;;
38117;SDS011;23928;47.562;7.508;2022-07-18T06:52:23;5.27;;;3.50;;
38117;SDS011;23928;47.562;7.508;2022-07-18T06:54:49;9.00;;;3.43;;
38117;SDS011;23928;47.562;7.508;2022-07-18T06:57:14;5.03;;;3.37;;
38117;SDS011;23928;47.562;7.508;2022-07-18T06:59:40;4.43;;;3.27;;
38117;SDS011;23928;47.562;7.508;2022-07-18T07:02:06;5.23;;;3.40;;
38117;SDS011;23928;47.562;7.508;2022-07-18T07:04:31;4.57;;;3.03;;
38117;SDS011;23928;47.562;7.508;2022-07-18T07:06:57;4.13;;;3.20;;
38117;SDS011;23928;47.562;7.508;2022-07-18T07:09:23;3.03;;;2.80;;
38117;SDS011;23928;47.562;7.508;2022-07-18T07:11:48;5.47;;;3.07;;
38117;SDS011;23928;47.562;7.508;2022-07-18T07:14:14;6.60;;;3.33;;
38117;SDS011;23928;47.562;7.508;2022-07-18T07:16:39;4.43;;;3.20;;
38117;SDS011;23928;47.562;7.508;2022-07-18T07:19:05;3.97;;;2.77;;
38117;SDS011;23928;47.562;7.508;2022-07-18T07:21:30;4.00;;;3.10;;
38117;SDS011;23928;47.562;7.508;2022-07-18T07:23:56;5.73;;;3.00;;
38117;SDS011;23928;47.562;7.508;2022-07-18T07:26:22;3.47;;;2.80;;
38117;SDS011;23928;47.562;7.508;2022-07-18T07:28:47;4.67;;;3.03;;
38117;SDS011;23928;47.562;7.508;2022-07-18T07:31:13;3.20;;;2.90;;
38117;SDS011;23928;47.562;7.508;2022-07-18T07:33:39;5.57;;;2.70;;
38117;SDS011;23928;47.562;7.508;2022-07-18T07:36:04;3.93;;;2.70;;
38117;SDS011;23928;47.562;7.508;2022-07-18T07:38:30;3.33;;;3.03;;
38117;SDS011;23928;47.562;7.508;2022-07-18T07:40:56;3.27;;;2.60;;
38117;SDS011;23928;47.562;7.508;2022-07-18T07:43:22;3.00;;;2.70;;
38117;SDS011;23928;47.562;7.508;2022-07-18T07:45:49;5.93;;;2.77;;
38117;SDS011;23928;47.562;7.508;2022-07-18T07:48:17;5.17;;;2.60;;
38117;SDS011;23928;47.562;7.508;2022-07-18T07:50:42;4.13;;;2.60;;
38117;SDS011;23928;47.562;7.508;2022-07-18T07:53:08;3.07;;;2.50;;
38117;SDS011;23928;47.562;7.508;2022-07-18T07:55:34;2.67;;;2.47;;
38117;SDS011;23928;47.562;7.508;2022-07-18T07:57:59;3.57;;;2.80;;
38117;SDS011;23928;47.562;7.508;2022-07-18T08:00:25;9.13;;;2.73;;
38117;SDS011;23928;47.562;7.508;2022-07-18T08:02:56;3.97;;;2.80;;
38117;SDS011;23928;47.562;7.508;2022-07-18T08:05:23;3.77;;;2.60;;
38117;SDS011;23928;47.562;7.508;2022-07-18T08:07:49;3.20;;;2.50;;
38117;SDS011;23928;47.562;7.508;2022-07-18T08:10:15;3.97;;;2.60;;
38117;SDS011;23928;47.562;7.508;2022-07-18T08:12:42;3.63;;;2.40;;
38117;SDS011;23928;47.562;7.508;2022-07-18T08:15:08;4.67;;;2.60;;
38117;SDS011;23928;47.562;7.508;2022-07-18T08:17:34;7.60;;;2.40;;
38117;SDS011;23928;47.562;7.508;2022-07-18T08:20:00;3.27;;;2.83;;
38117;SDS011;23928;47.562;7.508;2022-07-18T08:22:25;3.23;;;2.70;;
38117;SDS011;23928;47.562;7.508;2022-07-18T08:24:51;3.97;;;2.27;;
38117;SDS011;23928;47.562;7.508;2022-07-18T08:27:17;3.53;;;2.47;;
38117;SDS011;23928;47.562;7.508;2022-07-18T08:29:42;4.33;;;2.70;;
38117;SDS011;23928;47.562;7.508;2022-07-18T08:32:08;3.93;;;2.23;;
38117;SDS011;23928;47.562;7.508;2022-07-18T08:34:34;4.83;;;2.67;;
38117;SDS011;23928;47.562;7.508;2022-07-18T08:36:59;2.60;;;2.40;;
38117;SDS011;23928;47.562;7.508;2022-07-18T08:39:25;3.23;;;2.13;;
38117;SDS011;23928;47.562;7.508;2022-07-18T08:41:51;4.87;;;2.40;;
38117;SDS011;23928;47.562;7.508;2022-07-18T08:44:17;2.80;;;2.60;;
38117;SDS011;23928;47.562;7.508;2022-07-18T08:46:49;2.93;;;2.67;;
38117;SDS011;23928;47.562;7.508;2022-07-18T08:49:16;5.53;;;2.23;;
38117;SDS011;23928;47.562;7.508;2022-07-18T08:51:43;3.43;;;2.40;;
38117;SDS011;23928;47.562;7.508;2022-07-18T08:54:09;2.90;;;2.20;;
38117;SDS011;23928;47.562;7.508;2022-07-18T08:56:35;6.27;;;2.70;;
38117;SDS011;23928;47.562;7.508;2022-07-18T08:59:01;4.03;;;2.53;;
38117;SDS011;23928;47.562;7.508;2022-07-18T09:01:28;3.77;;;2.40;;
38117;SDS011;23928;47.562;7.508;2022-07-18T09:03:55;5.20;;;2.77;;
38117;SDS011;23928;47.562;7.508;2022-07-18T09:06:50;3.53;;;2.63;;
38117;SDS011;23928;47.562;7.508;2022-07-18T09:09:17;4.90;;;2.40;;
38117;SDS011;23928;47.562;7.508;2022-07-18T09:11:54;4.80;;;2.60;;
38117;SDS011;23928;47.562;7.508;2022-07-18T09:17:01;7.40;;;2.93;;
38117;SDS011;23928;47.562;7.508;2022-07-18T09:19:28;6.27;;;2.80;;
38117;SDS011;23928;47.562;7.508;2022-07-18T09:21:54;7.30;;;2.67;;
38117;SDS011;23928;47.562;7.508;2022-07-18T09:25:02;4.87;;;2.60;;
38117;SDS011;23928;47.562;7.508;2022-07-18T09:27:32;4.60;;;2.73;;
38117;SDS011;23928;47.562;7.508;2022-07-18T09:32:34;6.17;;;2.67;;
38117;SDS011;23928;47.562;7.508;2022-07-18T09:35:04;4.23;;;2.40;;
38117;SDS011;23928;47.562;7.508;2022-07-18T09:37:33;6.07;;;2.50;;
38117;SDS011;23928;47.562;7.508;2022-07-18T09:43:14;6.70;;;2.97;;
38117;SDS011;23928;47.562;7.508;2022-07-18T09:48:09;4.17;;;2.67;;
38117;SDS011;23928;47.562;7.508;2022-07-18T09:50:38;5.67;;;2.40;;
38117;SDS011;23928;47.562;7.508;2022-07-18T09:55:41;6.87;;;2.77;;
38117;SDS011;23928;47.562;7.508;2022-07-18T09:58:15;4.47;;;2.30;;
38117;SDS011;23928;47.562;7.508;2022-07-18T10:00:43;3.33;;;2.50;;
38117;SDS011;23928;47.562;7.508;2022-07-18T10:03:09;4.30;;;2.30;;
38117;SDS011;23928;47.562;7.508;2022-07-18T10:05:36;3.47;;;2.13;;
38117;SDS011;23928;47.562;7.508;2022-07-18T10:08:08;3.50;;;2.17;;
38117;SDS011;23928;47.562;7.508;2022-07-18T10:10:39;5.07;;;2.80;;
38117;SDS011;23928;47.562;7.508;2022-07-18T10:13:06;5.97;;;2.67;;
38117;SDS011;23928;47.562;7.508;2022-07-18T10:15:34;2.73;;;2.30;;
38117;SDS011;23928;47.562;7.508;2022-07-18T10:18:02;3.90;;;2.43;;
38117;SDS011;23928;47.562;7.508;2022-07-18T10:20:31;4.50;;;2.47;;
38117;SDS011;23928;47.562;7.508;2022-07-18T10:25:44;4.53;;;2.30;;
38117;SDS011;23928;47.562;7.508;2022-07-18T10:28:28;3.00;;;2.30;;
38117;SDS011;23928;47.562;7.508;2022-07-18T10:30:53;4.53;;;2.20;;
38117;SDS011;23928;47.562;7.508;2022-07-18T10:36:12;4.93;;;2.60;;
38117;SDS011;23928;47.562;7.508;2022-07-18T10:39:02;3.97;;;2.20;;
38117;SDS011;23928;47.562;7.508;2022-07-18T10:41:28;3.03;;;2.37;;
38117;SDS011;23928;47.562;7.508;2022-07-18T10:43:54;2.57;;;2.37;;
38117;SDS011;23928;47.562;7.508;2022-07-18T10:46:20;3.23;;;2.40;;
38117;SDS011;23928;47.562;7.508;2022-07-18T10:51:18;3.83;;;2.40;;
38117;SDS011;23928;47.562;7.508;2022-07-18T10:57:04;2.80;;;2.30;;
38117;SDS011;23928;47.562;7.508;2022-07-18T10:59:18;2.67;;;2.30;;
38117;SDS011;23928;47.562;7.508;2022-07-18T11:01:49;3.87;;;2.27;;
38117;SDS011;23928;47.562;7.508;2022-07-18T11:04:25;4.07;;;2.60;;
38117;SDS011;23928;47.562;7.508;2022-07-18T11:07:10;2.50;;;2.20;;
38117;SDS011;23928;47.562;7.508;2022-07-18T11:09:42;2.30;;;2.10;;
38117;SDS011;23928;47.562;7.508;2022-07-18T11:12:22;5.20;;;2.33;;
38117;SDS011;23928;47.562;7.508;2022-07-18T11:14:58;3.73;;;2.50;;
38117;SDS011;23928;47.562;7.508;2022-07-18T11:22:49;5.07;;;2.30;;
38117;SDS011;23928;47.562;7.508;2022-07-18T11:25:16;2.43;;;2.23;;
38117;SDS011;23928;47.562;7.508;2022-07-18T11:27:43;2.50;;;2.17;;
38117;SDS011;23928;47.562;7.508;2022-07-18T11:30:09;3.60;;;2.30;;
38117;SDS011;23928;47.562;7.508;2022-07-18T11:32:36;3.47;;;2.07;;
38117;SDS011;23928;47.562;7.508;2022-07-18T11:35:02;2.47;;;2.00;;
38117;SDS011;23928;47.562;7.508;2022-07-18T11:37:31;3.47;;;2.27;;
38117;SDS011;23928;47.562;7.508;2022-07-18T11:40:03;3.07;;;2.27;;
38117;SDS011;23928;47.562;7.508;2022-07-18T11:42:37;2.20;;;2.00;;
38117;SDS011;23928;47.562;7.508;2022-07-18T11:45:04;2.87;;;2.13;;
38117;SDS011;23928;47.562;7.508;2022-07-18T11:47:31;2.10;;;1.90;;
38117;SDS011;23928;47.562;7.508;2022-07-18T11:50:16;4.90;;;2.20;;
38117;SDS011;23928;47.562;7.508;2022-07-18T11:52:43;2.97;;;2.30;;
38117;SDS011;23928;47.562;7.508;2022-07-18T11:55:13;5.77;;;2.10;;
38117;SDS011;23928;47.562;7.508;2022-07-18T11:57:39;3.83;;;2.20;;
38117;SDS011;23928;47.562;7.508;2022-07-18T12:00:13;2.77;;;2.00;;
38117;SDS011;23928;47.562;7.508;2022-07-18T12:05:35;3.03;;;2.10;;
38117;SDS011;23928;47.562;7.508;2022-07-18T12:13:46;2.90;;;2.10;;
38117;SDS011;23928;47.562;7.508;2022-07-18T12:16:36;3.83;;;2.30;;
38117;SDS011;23928;47.562;7.508;2022-07-18T12:21:40;2.30;;;2.10;;
38117;SDS011;23928;47.562;7.508;2022-07-18T12:27:09;4.07;;;2.00;;
38117;SDS011;23928;47.562;7.508;2022-07-18T12:30:17;11.32;;;2.25;;
38117;SDS011;23928;47.562;7.508;2022-07-18T12:35:32;1.88;;;1.70;;
38117;SDS011;23928;47.562;7.508;2022-07-18T12:45:58;4.00;;;2.30;;
38117;SDS011;23928;47.562;7.508;2022-07-18T12:48:29;2.47;;;1.92;;
38117;SDS011;23928;47.562;7.508;2022-07-18T12:51:05;2.42;;;2.22;;
38117;SDS011;23928;47.562;7.508;2022-07-18T12:53:33;3.95;;;2.20;;
38117;SDS011;23928;47.562;7.508;2022-07-18T12:56:01;3.13;;;2.10;;
38117;SDS011;23928;47.562;7.508;2022-07-18T12:58:27;2.40;;;2.20;;
38117;SDS011;23928;47.562;7.508;2022-07-18T13:00:52;2.42;;;1.92;;
38117;SDS011;23928;47.562;7.508;2022-07-18T13:03:21;1.85;;;1.75;;
38117;SDS011;23928;47.562;7.508;2022-07-18T13:05:47;3.13;;;2.00;;
38117;SDS011;23928;47.562;7.508;2022-07-18T13:08:12;3.17;;;2.00;;
38117;SDS011;23928;47.562;7.508;2022-07-18T13:10:38;4.38;;;2.10;;
38117;SDS011;23928;47.562;7.508;2022-07-18T13:13:04;3.38;;;1.95;;
38117;SDS011;23928;47.562;7.508;2022-07-18T13:15:31;2.33;;;2.13;;
38117;SDS011;23928;47.562;7.508;2022-07-18T13:17:57;2.67;;;1.90;;
38117;SDS011;23928;47.562;7.508;2022-07-18T13:20:23;2.22;;;1.90;;
38117;SDS011;23928;47.562;7.508;2022-07-18T13:22:48;4.63;;;2.13;;
38117;SDS011;23928;47.562;7.508;2022-07-18T13:25:14;3.13;;;2.22;;
38117;SDS011;23928;47.562;7.508;2022-07-18T13:27:40;3.58;;;2.00;;
38117;SDS011;23928;47.562;7.508;2022-07-18T13:30:06;4.53;;;2.30;;
38117;SDS011;23928;47.562;7.508;2022-07-18T13:32:33;3.50;;;1.95;;
38117;SDS011;23928;47.562;7.508;2022-07-18T13:34:59;4.35;;;2.53;;
38117;SDS011;23928;47.562;7.508;2022-07-18T13:37:25;4.20;;;2.28;;
38117;SDS011;23928;47.562;7.508;2022-07-18T13:39:51;2.88;;;1.80;;
38117;SDS011;23928;47.562;7.508;2022-07-18T13:42:16;3.28;;;1.80;;
38117;SDS011;23928;47.562;7.508;2022-07-18T13:44:43;3.58;;;2.28;;
38117;SDS011;23928;47.562;7.508;2022-07-18T13:47:12;3.13;;;2.13;;
38117;SDS011;23928;47.562;7.508;2022-07-18T13:49:39;3.90;;;2.60;;
38117;SDS011;23928;47.562;7.508;2022-07-18T13:52:05;2.05;;;1.83;;
38117;SDS011;23928;47.562;7.508;2022-07-18T13:54:31;5.63;;;2.38;;
38117;SDS011;23928;47.562;7.508;2022-07-18T13:56:57;9.48;;;2.42;;
38117;SDS011;23928;47.562;7.508;2022-07-18T13:59:22;4.25;;;2.00;;
38117;SDS011;23928;47.562;7.508;2022-07-18T14:01:48;4.20;;;2.30;;
38117;SDS011;23928;47.562;7.508;2022-07-18T14:04:15;3.97;;;2.25;;
38117;SDS011;23928;47.562;7.508;2022-07-18T14:06:41;2.85;;;2.22;;
38117;SDS011;23928;47.562;7.508;2022-07-18T14:09:06;5.53;;;2.30;;
38117;SDS011;23928;47.562;7.508;2022-07-18T14:11:32;5.72;;;1.95;;
38117;SDS011;23928;47.562;7.508;2022-07-18T14:13:58;2.90;;;2.17;;
38117;SDS011;23928;47.562;7.508;2022-07-18T14:16:25;5.07;;;2.30;;
38117;SDS011;23928;47.562;7.508;2022-07-18T14:18:51;4.50;;;2.10;;
38117;SDS011;23928;47.562;7.508;2022-07-18T14:21:17;5.75;;;2.35;;
38117;SDS011;23928;47.562;7.508;2022-07-18T14:23:42;3.53;;;2.15;;
38117;SDS011;23928;47.562;7.508;2022-07-18T14:26:08;2.92;;;2.60;;
38117;SDS011;23928;47.562;7.508;2022-07-18T14:28:33;3.72;;;1.90;;
38117;SDS011;23928;47.562;7.508;2022-07-18T14:30:59;4.20;;;2.33;;
38117;SDS011;23928;47.562;7.508;2022-07-18T14:33:25;4.95;;;2.50;;
38117;SDS011;23928;47.562;7.508;2022-07-18T14:35:50;3.05;;;2.20;;
38117;SDS011;23928;47.562;7.508;2022-07-18T14:38:16;6.20;;;2.60;;
38117;SDS011;23928;47.562;7.508;2022-07-18T14:40:41;2.72;;;2.33;;
38117;SDS011;23928;47.562;7.508;2022-07-18T14:43:07;3.33;;;1.90;;
38117;SDS011;23928;47.562;7.508;2022-07-18T14:45:33;3.75;;;2.10;;
38117;SDS011;23928;47.562;7.508;2022-07-18T14:47:59;3.05;;;2.25;;
38117;SDS011;23928;47.562;7.508;2022-07-18T14:50:24;4.88;;;2.25;;
38117;SDS011;23928;47.562;7.508;2022-07-18T14:52:50;4.40;;;2.53;;
38117;SDS011;23928;47.562;7.508;2022-07-18T14:55:15;4.40;;;2.65;;
38117;SDS011;23928;47.562;7.508;2022-07-18T14:57:41;4.43;;;2.50;;
38117;SDS011;23928;47.562;7.508;2022-07-18T15:00:07;5.88;;;2.28;;
38117;SDS011;23928;47.562;7.508;2022-07-18T15:02:37;3.30;;;2.30;;
38117;SDS011;23928;47.562;7.508;2022-07-18T15:05:03;5.03;;;2.53;;
38117;SDS011;23928;47.562;7.508;2022-07-18T15:07:30;2.67;;;2.10;;
38117;SDS011;23928;47.562;7.508;2022-07-18T15:09:55;3.80;;;2.30;;
38117;SDS011;23928;47.562;7.508;2022-07-18T15:12:21;3.10;;;2.13;;
38117;SDS011;23928;47.562;7.508;2022-07-18T15:14:47;6.90;;;2.92;;
38117;SDS011;23928;47.562;7.508;2022-07-18T15:17:12;4.13;;;2.53;;
38117;SDS011;23928;47.562;7.508;2022-07-18T15:19:38;4.18;;;2.20;;
38117;SDS011;23928;47.562;7.508;2022-07-18T15:22:04;2.95;;;2.22;;
38117;SDS011;23928;47.562;7.508;2022-07-18T15:24:32;3.70;;;2.17;;
38117;SDS011;23928;47.562;7.508;2022-07-18T15:26:59;3.60;;;2.50;;
38117;SDS011;23928;47.562;7.508;2022-07-18T15:29:24;3.75;;;2.47;;
38117;SDS011;23928;47.562;7.508;2022-07-18T15:31:50;3.42;;;2.30;;
38117;SDS011;23928;47.562;7.508;2022-07-18T15:34:16;2.75;;;2.20;;
38117;SDS011;23928;47.562;7.508;2022-07-18T15:36:41;3.67;;;2.15;;
38117;SDS011;23928;47.562;7.508;2022-07-18T15:39:07;4.70;;;2.50;;
38117;SDS011;23928;47.562;7.508;2022-07-18T15:41:32;3.00;;;2.25;;
38117;SDS011;23928;47.562;7.508;2022-07-18T15:43:58;3.90;;;2.10;;